sensor_id;sensor_type;location;lat;lon;timestamp;pressure;altitude;pressure_sealevel;temperature;humidity
18504;BME280;9381;54.244;10.074;2023-05-23T00:02:41;100788.44;;;17.13;100.00
18504;BME280;9381;54.244;10.074;2023-05-23T00:07:41;100788.53;;;17.23;100.00
18504;BME280;9381;54.244;10.074;2023-05-23T00:12:42;100785.34;;;17.31;100.00
18504;BME280;9381;54.244;10.074;2023-05-23T00:17:43;100790.88;;;17.36;100.00
18504;BME280;9381;54.244;10.074;2023-05-23T00:22:43;100775.53;;;17.35;100.00
18504;BME280;9381;54.244;10.074;2023-05-23T00:27:47;100776.19;;;17.42;100.00
18504;BME280;9381;54.244;10.074;2023-05-23T00:32:47;100764.72;;;17.45;100.00
18504;BME280;9381;54.244;10.074;2023-05-23T00:37:48;100768.22;;;17.40;100.00
18504;BME280;9381;54.244;10.074;2023-05-23T00:42:51;100775.97;;;17.22;100.00
18504;BME280;9381;54.244;10.074;2023-05-23T00:47:52;100776.97;;;17.16;100.00
18504;BME280;9381;54.244;10.074;2023-05-23T00:52:53;100775.34;;;17.15;100.00
18504;BME280;9381;54.244;10.074;2023-05-23T00:57:53;100769.34;;;17.18;100.00
18504;BME280;9381;54.244;10.074;2023-05-23T01:02:56;100758.97;;;17.20;100.00
18504;BME280;9381;54.244;10.074;2023-05-23T01:07:57;100759.03;;;17.25;100.00
18504;BME280;9381;54.244;10.074;2023-05-23T01:13:23;100755.53;;;17.29;100.00
18504;BME280;9381;54.244;10.074;2023-05-23T01:18:36;100739.34;;;17.23;100.00
18504;BME280;9381;54.244;10.074;2023-05-23T01:24:06;100743.66;;;17.19;100.00
18504;BME280;9381;54.244;10.074;2023-05-23T01:29:21;100739.84;;;17.20;100.00
18504;BME280;9381;54.244;10.074;2023-05-23T01:34:23;100728.34;;;17.18;100.00
18504;BME280;9381;54.244;10.074;2023-05-23T01:39:23;100729.97;;;17.14;100.00
18504;BME280;9381;54.244;10.074;2023-05-23T01:44:24;100728.22;;;17.03;100.00
18504;BME280;9381;54.244;10.074;2023-05-23T01:49:25;100727.50;;;16.86;100.00
18504;BME280;9381;54.244;10.074;2023-05-23T01:54:27;100726.34;;;16.82;100.00
18504;BME280;9381;54.244;10.074;2023-05-23T01:59:28;100729.38;;;16.59;100.00
18504;BME280;9381;54.244;10.074;2023-05-23T02:04:29;100722.66;;;16.45;100.00
18504;BME280;9381;54.244;10.074;2023-05-23T02:09:30;100736.81;;;16.42;100.00
18504;BME280;9381;54.244;10.074;2023-05-23T02:14:30;100730.50;;;16.41;100.00
18504;BME280;9381;54.244;10.074;2023-05-23T02:19:30;100734.69;;;16.27;100.00
18504;BME280;9381;54.244;10.074;2023-05-23T02:24:30;100734.41;;;16.29;100.00
18504;BME280;9381;54.244;10.074;2023-05-23T02:29:31;100724.41;;;16.13;100.00
18504;BME280;9381;54.244;10.074;2023-05-23T02:34:31;100720.50;;;16.09;100.00
18504;BME280;9381;54.244;10.074;2023-05-23T02:39:35;100720.31;;;16.15;100.00
18504;BME280;9381;54.244;10.074;2023-05-23T02:44:36;100717.75;;;16.25;100.00
18504;BME280;9381;54.244;10.074;2023-05-23T02:49:36;100718.56;;;16.26;100.00
18504;BME280;9381;54.244;10.074;2023-05-23T02:54:36;100721.22;;;16.21;100.00
18504;BME280;9381;54.244;10.074;2023-05-23T02:59:36;100729.91;;;16.18;100.00
18504;BME280;9381;54.244;10.074;2023-05-23T03:04:37;100719.25;;;16.16;100.00
18504;BME280;9381;54.244;10.074;2023-05-23T03:09:37;100725.47;;;16.12;100.00
18504;BME280;9381;54.244;10.074;2023-05-23T03:14:37;100715.81;;;16.26;100.00
18504;BME280;9381;54.244;10.074;2023-05-23T03:19:38;100710.75;;;16.34;100.00
18504;BME280;9381;54.244;10.074;2023-05-23T03:24:38;100708.69;;;16.41;100.00
18504;BME280;9381;54.244;10.074;2023-05-23T03:29:38;100704.16;;;16.52;100.00
18504;BME280;9381;54.244;10.074;2023-05-23T03:34:39;100702.53;;;16.51;100.00
18504;BME280;9381;54.244;10.074;2023-05-23T03:39:39;100709.00;;;16.45;100.00
18504;BME280;9381;54.244;10.074;2023-05-23T03:44:39;100708.03;;;16.56;100.00
18504;BME280;9381;54.244;10.074;2023-05-23T03:49:40;100710.00;;;16.60;100.00
18504;BME280;9381;54.244;10.074;2023-05-23T03:54:40;100735.81;;;16.48;100.00
18504;BME280;9381;54.244;10.074;2023-05-23T03:59:41;100743.41;;;16.46;100.00
18504;BME280;9381;54.244;10.074;2023-05-23T04:04:41;100729.94;;;16.39;100.00
18504;BME280;9381;54.244;10.074;2023-05-23T04:09:42;100724.09;;;16.31;100.00
18504;BME280;9381;54.244;10.074;2023-05-23T04:14:42;100733.41;;;16.35;100.00
18504;BME280;9381;54.244;10.074;2023-05-23T04:19:43;100715.94;;;16.36;100.00
18504;BME280;9381;54.244;10.074;2023-05-23T04:24:44;100725.91;;;16.42;100.00
18504;BME280;9381;54.244;10.074;2023-05-23T04:29:44;100727.53;;;16.43;100.00
18504;BME280;9381;54.244;10.074;2023-05-23T04:34:45;100721.38;;;16.52;100.00
18504;BME280;9381;54.244;10.074;2023-05-23T04:39:49;100728.81;;;16.57;100.00
18504;BME280;9381;54.244;10.074;2023-05-23T04:44:50;100717.91;;;16.57;100.00
18504;BME280;9381;54.244;10.074;2023-05-23T04:49:50;100729.88;;;16.56;100.00
18504;BME280;9381;54.244;10.074;2023-05-23T04:54:53;100729.41;;;16.64;100.00
18504;BME280;9381;54.244;10.074;2023-05-23T04:59:53;100748.19;;;16.55;100.00
18504;BME280;9381;54.244;10.074;2023-05-23T05:04:53;100752.78;;;16.55;100.00
18504;BME280;9381;54.244;10.074;2023-05-23T05:09:54;100755.16;;;16.46;100.00
18504;BME280;9381;54.244;10.074;2023-05-23T05:14:54;100760.28;;;16.43;100.00
18504;BME280;9381;54.244;10.074;2023-05-23T05:19:54;100760.81;;;16.40;100.00
18504;BME280;9381;54.244;10.074;2023-05-23T05:24:55;100763.69;;;16.33;100.00
18504;BME280;9381;54.244;10.074;2023-05-23T05:29:55;100759.06;;;16.34;100.00
18504;BME280;9381;54.244;10.074;2023-05-23T05:35:03;100755.19;;;16.30;100.00
18504;BME280;9381;54.244;10.074;2023-05-23T05:40:04;100761.78;;;16.34;100.00
18504;BME280;9381;54.244;10.074;2023-05-23T05:45:08;100762.47;;;16.41;100.00
18504;BME280;9381;54.244;10.074;2023-05-23T05:50:08;100776.16;;;16.46;100.00
18504;BME280;9381;54.244;10.074;2023-05-23T05:55:10;100777.75;;;16.42;100.00
18504;BME280;9381;54.244;10.074;2023-05-23T06:00:13;100794.94;;;16.42;100.00
18504;BME280;9381;54.244;10.074;2023-05-23T06:05:14;100796.19;;;16.35;100.00
18504;BME280;9381;54.244;10.074;2023-05-23T06:10:15;100803.41;;;16.41;100.00
18504;BME280;9381;54.244;10.074;2023-05-23T06:15:16;100805.13;;;16.47;100.00
18504;BME280;9381;54.244;10.074;2023-05-23T06:20:17;100817.31;;;16.39;100.00
18504;BME280;9381;54.244;10.074;2023-05-23T06:25:17;100814.72;;;16.33;100.00
18504;BME280;9381;54.244;10.074;2023-05-23T06:30:17;100825.50;;;16.23;100.00
18504;BME280;9381;54.244;10.074;2023-05-23T06:35:17;100834.91;;;16.32;100.00
18504;BME280;9381;54.244;10.074;2023-05-23T06:40:18;100835.41;;;16.29;100.00
18504;BME280;9381;54.244;10.074;2023-05-23T06:45:18;100837.72;;;16.37;100.00
18504;BME280;9381;54.244;10.074;2023-05-23T06:50:19;100849.66;;;16.31;100.00
18504;BME280;9381;54.244;10.074;2023-05-23T06:55:19;100852.38;;;16.31;100.00
18504;BME280;9381;54.244;10.074;2023-05-23T07:00:19;100856.00;;;16.20;100.00
18504;BME280;9381;54.244;10.074;2023-05-23T07:05:20;100859.75;;;16.14;100.00
18504;BME280;9381;54.244;10.074;2023-05-23T07:10:21;100877.03;;;16.03;100.00
18504;BME280;9381;54.244;10.074;2023-05-23T07:15:21;100876.88;;;15.93;100.00
18504;BME280;9381;54.244;10.074;2023-05-23T07:20:21;100872.19;;;15.88;100.00
18504;BME280;9381;54.244;10.074;2023-05-23T07:25:22;100876.44;;;15.84;100.00
18504;BME280;9381;54.244;10.074;2023-05-23T07:30:22;100886.28;;;15.85;100.00
18504;BME280;9381;54.244;10.074;2023-05-23T07:35:23;100892.00;;;15.84;100.00
18504;BME280;9381;54.244;10.074;2023-05-23T07:40:25;100900.94;;;15.79;100.00
18504;BME280;9381;54.244;10.074;2023-05-23T07:45:25;100906.03;;;15.76;100.00
18504;BME280;9381;54.244;10.074;2023-05-23T07:50:25;100916.94;;;15.76;100.00
18504;BME280;9381;54.244;10.074;2023-05-23T07:55:26;100917.75;;;15.60;100.00
18504;BME280;9381;54.244;10.074;2023-05-23T08:00:27;100931.44;;;15.65;100.00
18504;BME280;9381;54.244;10.074;2023-05-23T08:05:27;100927.97;;;15.53;100.00
18504;BME280;9381;54.244;10.074;2023-05-23T08:10:27;100920.84;;;15.52;100.00
18504;BME280;9381;54.244;10.074;2023-05-23T08:15:28;100925.81;;;15.55;100.00
18504;BME280;9381;54.244;10.074;2023-05-23T08:20:29;100938.25;;;15.62;100.00
18504;BME280;9381;54.244;10.074;2023-05-23T08:25:30;100939.16;;;15.68;100.00
18504;BME280;9381;54.244;10.074;2023-05-23T08:30:31;100944.44;;;15.58;100.00
18504;BME280;9381;54.244;10.074;2023-05-23T08:35:34;100945.25;;;15.58;100.00
18504;BME280;9381;54.244;10.074;2023-05-23T08:40:35;100953.91;;;15.55;100.00
18504;BME280;9381;54.244;10.074;2023-05-23T08:45:36;100956.19;;;15.47;100.00
18504;BME280;9381;54.244;10.074;2023-05-23T08:50:39;100966.66;;;15.27;100.00
18504;BME280;9381;54.244;10.074;2023-05-23T08:55:39;100975.81;;;15.09;100.00
18504;BME280;9381;54.244;10.074;2023-05-23T09:00:41;100988.75;;;14.91;100.00
18504;BME280;9381;54.244;10.074;2023-05-23T09:05:42;100994.59;;;14.72;100.00
18504;BME280;9381;54.244;10.074;2023-05-23T09:10:42;101003.47;;;14.67;100.00
18504;BME280;9381;54.244;10.074;2023-05-23T09:21:01;101014.00;;;14.64;100.00
18504;BME280;9381;54.244;10.074;2023-05-23T09:26:09;101025.25;;;14.67;100.00
18504;BME280;9381;54.244;10.074;2023-05-23T09:31:10;101034.34;;;14.73;100.00
18504;BME280;9381;54.244;10.074;2023-05-23T09:36:11;101024.88;;;14.64;100.00
18504;BME280;9381;54.244;10.074;2023-05-23T09:41:12;101036.00;;;14.62;100.00
18504;BME280;9381;54.244;10.074;2023-05-23T09:46:12;101029.03;;;14.66;100.00
18504;BME280;9381;54.244;10.074;2023-05-23T09:51:12;101024.91;;;14.75;100.00
18504;BME280;9381;54.244;10.074;2023-05-23T09:56:14;101031.38;;;14.74;100.00
18504;BME280;9381;54.244;10.074;2023-05-23T10:01:16;101041.47;;;14.85;100.00
18504;BME280;9381;54.244;10.074;2023-05-23T10:06:25;101048.44;;;14.92;100.00
18504;BME280;9381;54.244;10.074;2023-05-23T10:16:54;101066.78;;;14.85;100.00
18504;BME280;9381;54.244;10.074;2023-05-23T10:21:58;101073.78;;;14.93;100.00
18504;BME280;9381;54.244;10.074;2023-05-23T10:27:00;101064.91;;;14.97;100.00
18504;BME280;9381;54.244;10.074;2023-05-23T10:32:02;101067.50;;;15.38;100.00
18504;BME280;9381;54.244;10.074;2023-05-23T10:37:05;101079.25;;;15.39;100.00
18504;BME280;9381;54.244;10.074;2023-05-23T10:42:14;101080.53;;;15.25;100.00
18504;BME280;9381;54.244;10.074;2023-05-23T10:47:26;101080.28;;;15.03;98.27
18504;BME280;9381;54.244;10.074;2023-05-23T10:52:38;101089.03;;;15.05;97.87
18504;BME280;9381;54.244;10.074;2023-05-23T10:57:39;101088.47;;;15.03;96.69
18504;BME280;9381;54.244;10.074;2023-05-23T11:02:52;101084.44;;;15.06;96.69
18504;BME280;9381;54.244;10.074;2023-05-23T11:08:23;101095.47;;;15.34;95.14
18504;BME280;9381;54.244;10.074;2023-05-23T11:13:24;101100.69;;;15.86;94.24
18504;BME280;9381;54.244;10.074;2023-05-23T11:18:27;101109.00;;;16.19;90.98
18504;BME280;9381;54.244;10.074;2023-05-23T11:23:40;101100.25;;;16.62;87.48
18504;BME280;9381;54.244;10.074;2023-05-23T11:28:57;101104.00;;;16.89;85.08
18504;BME280;9381;54.244;10.074;2023-05-23T11:33:58;101100.69;;;17.03;83.97
18504;BME280;9381;54.244;10.074;2023-05-23T11:39:01;101098.59;;;17.86;84.44
18504;BME280;9381;54.244;10.074;2023-05-23T11:44:10;101105.13;;;18.54;78.88
18504;BME280;9381;54.244;10.074;2023-05-23T11:49:10;101103.38;;;18.43;75.03
18504;BME280;9381;54.244;10.074;2023-05-23T11:54:11;101105.84;;;19.39;73.53
18504;BME280;9381;54.244;10.074;2023-05-23T11:59:12;101111.78;;;18.58;71.15
18504;BME280;9381;54.244;10.074;2023-05-23T12:04:12;101116.88;;;18.50;72.07
18504;BME280;9381;54.244;10.074;2023-05-23T12:09:13;101125.97;;;18.29;72.74
18504;BME280;9381;54.244;10.074;2023-05-23T12:14:17;101128.97;;;17.63;72.69
18504;BME280;9381;54.244;10.074;2023-05-23T12:19:17;101110.91;;;17.62;73.78
18504;BME280;9381;54.244;10.074;2023-05-23T12:24:20;101128.66;;;17.43;74.29
18504;BME280;9381;54.244;10.074;2023-05-23T12:29:30;101138.78;;;17.10;75.42
18504;BME280;9381;54.244;10.074;2023-05-23T12:34:31;101134.22;;;16.99;76.16
18504;BME280;9381;54.244;10.074;2023-05-23T12:39:33;101137.78;;;17.16;74.95
18504;BME280;9381;54.244;10.074;2023-05-23T12:44:35;101139.59;;;17.10;74.89
18504;BME280;9381;54.244;10.074;2023-05-23T12:49:36;101135.63;;;17.01;75.13
18504;BME280;9381;54.244;10.074;2023-05-23T12:54:37;101136.69;;;16.84;73.08
18504;BME280;9381;54.244;10.074;2023-05-23T12:59:37;101140.72;;;16.65;73.12
18504;BME280;9381;54.244;10.074;2023-05-23T13:04:38;101139.84;;;16.92;73.83
18504;BME280;9381;54.244;10.074;2023-05-23T13:09:38;101148.69;;;16.83;73.56
18504;BME280;9381;54.244;10.074;2023-05-23T13:14:39;101142.41;;;16.99;72.79
18504;BME280;9381;54.244;10.074;2023-05-23T13:19:39;101153.59;;;16.81;72.49
18504;BME280;9381;54.244;10.074;2023-05-23T13:24:40;101158.47;;;16.79;72.58
18504;BME280;9381;54.244;10.074;2023-05-23T13:29:42;101155.00;;;16.67;72.09
18504;BME280;9381;54.244;10.074;2023-05-23T13:34:43;101157.63;;;16.78;72.37
18504;BME280;9381;54.244;10.074;2023-05-23T13:39:43;101167.94;;;17.21;71.99
18504;BME280;9381;54.244;10.074;2023-05-23T13:44:43;101167.41;;;16.91;70.78
18504;BME280;9381;54.244;10.074;2023-05-23T13:49:44;101175.38;;;16.76;72.03
18504;BME280;9381;54.244;10.074;2023-05-23T13:54:44;101181.13;;;16.63;71.12
18504;BME280;9381;54.244;10.074;2023-05-23T13:59:45;101185.34;;;16.70;72.67
18504;BME280;9381;54.244;10.074;2023-05-23T14:04:45;101191.06;;;16.69;71.65
18504;BME280;9381;54.244;10.074;2023-05-23T14:09:47;101183.75;;;16.86;71.62
18504;BME280;9381;54.244;10.074;2023-05-23T14:14:47;101193.75;;;16.80;69.63
18504;BME280;9381;54.244;10.074;2023-05-23T14:19:48;101193.25;;;17.00;70.09
18504;BME280;9381;54.244;10.074;2023-05-23T14:24:48;101204.69;;;16.97;70.40
18504;BME280;9381;54.244;10.074;2023-05-23T14:29:48;101206.94;;;17.00;69.86
18504;BME280;9381;54.244;10.074;2023-05-23T14:34:49;101203.28;;;17.11;68.14
18504;BME280;9381;54.244;10.074;2023-05-23T14:39:49;101193.59;;;16.87;69.85
18504;BME280;9381;54.244;10.074;2023-05-23T14:44:52;101214.09;;;16.45;71.99
18504;BME280;9381;54.244;10.074;2023-05-23T14:49:52;101191.16;;;16.46;70.17
18504;BME280;9381;54.244;10.074;2023-05-23T14:54:52;101215.44;;;16.31;69.44
18504;BME280;9381;54.244;10.074;2023-05-23T14:59:53;101219.94;;;16.37;71.04
18504;BME280;9381;54.244;10.074;2023-05-23T15:04:53;101219.81;;;16.43;69.54
18504;BME280;9381;54.244;10.074;2023-05-23T15:09:54;101233.91;;;16.29;68.73
18504;BME280;9381;54.244;10.074;2023-05-23T15:14:54;101224.09;;;16.39;70.34
18504;BME280;9381;54.244;10.074;2023-05-23T15:20:02;101230.16;;;16.30;69.78
18504;BME280;9381;54.244;10.074;2023-05-23T15:25:03;101238.00;;;16.15;69.95
18504;BME280;9381;54.244;10.074;2023-05-23T15:30:04;101237.78;;;16.05;69.29
18504;BME280;9381;54.244;10.074;2023-05-23T15:35:05;101256.31;;;16.03;70.38
18504;BME280;9381;54.244;10.074;2023-05-23T15:40:06;101244.19;;;15.87;70.76
18504;BME280;9381;54.244;10.074;2023-05-23T15:45:07;101259.88;;;15.57;70.09
18504;BME280;9381;54.244;10.074;2023-05-23T15:50:08;101258.91;;;15.52;70.90
18504;BME280;9381;54.244;10.074;2023-05-23T15:55:08;101261.03;;;15.73;71.32
18504;BME280;9381;54.244;10.074;2023-05-23T16:00:09;101252.28;;;15.71;70.01
18504;BME280;9381;54.244;10.074;2023-05-23T16:05:10;101260.22;;;15.61;71.74
18504;BME280;9381;54.244;10.074;2023-05-23T16:10:10;101261.25;;;15.37;72.41
18504;BME280;9381;54.244;10.074;2023-05-23T16:15:11;101257.94;;;15.35;72.55
18504;BME280;9381;54.244;10.074;2023-05-23T16:20:12;101263.03;;;15.31;71.81
18504;BME280;9381;54.244;10.074;2023-05-23T16:25:12;101266.13;;;15.05;72.27
18504;BME280;9381;54.244;10.074;2023-05-23T16:30:13;101264.09;;;15.01;72.65
18504;BME280;9381;54.244;10.074;2023-05-23T16:35:13;101277.94;;;14.88;73.32
18504;BME280;9381;54.244;10.074;2023-05-23T16:40:13;101261.97;;;14.91;73.70
18504;BME280;9381;54.244;10.074;2023-05-23T16:45:14;101268.63;;;14.66;73.00
18504;BME280;9381;54.244;10.074;2023-05-23T16:50:14;101271.59;;;14.47;75.00
18504;BME280;9381;54.244;10.074;2023-05-23T16:55:14;101261.38;;;14.42;75.30
18504;BME280;9381;54.244;10.074;2023-05-23T17:00:15;101265.78;;;14.25;75.67
18504;BME280;9381;54.244;10.074;2023-05-23T17:05:16;101277.56;;;14.19;76.35
18504;BME280;9381;54.244;10.074;2023-05-23T17:10:16;101269.69;;;14.11;77.01
18504;BME280;9381;54.244;10.074;2023-05-23T17:15:17;101278.16;;;14.03;77.12
18504;BME280;9381;54.244;10.074;2023-05-23T17:20:17;101276.03;;;14.05;77.30
18504;BME280;9381;54.244;10.074;2023-05-23T17:25:22;101291.28;;;13.88;77.57
18504;BME280;9381;54.244;10.074;2023-05-23T17:30:23;101297.94;;;13.92;78.57
18504;BME280;9381;54.244;10.074;2023-05-23T17:35:23;101293.09;;;13.94;78.39
18504;BME280;9381;54.244;10.074;2023-05-23T17:40:24;101305.91;;;13.87;77.16
18504;BME280;9381;54.244;10.074;2023-05-23T17:45:24;101298.81;;;13.86;77.39
18504;BME280;9381;54.244;10.074;2023-05-23T17:50:24;101301.81;;;13.78;78.01
18504;BME280;9381;54.244;10.074;2023-05-23T17:55:25;101306.47;;;13.71;77.67
18504;BME280;9381;54.244;10.074;2023-05-23T18:00:25;101311.13;;;13.64;77.81
18504;BME280;9381;54.244;10.074;2023-05-23T18:05:26;101304.22;;;13.44;78.72
18504;BME280;9381;54.244;10.074;2023-05-23T18:10:27;101317.97;;;13.49;78.11
18504;BME280;9381;54.244;10.074;2023-05-23T18:15:27;101318.41;;;13.46;79.13
18504;BME280;9381;54.244;10.074;2023-05-23T18:20:28;101320.28;;;13.45;79.35
18504;BME280;9381;54.244;10.074;2023-05-23T18:25:28;101314.84;;;13.45;78.76
18504;BME280;9381;54.244;10.074;2023-05-23T18:30:29;101327.84;;;13.43;78.91
18504;BME280;9381;54.244;10.074;2023-05-23T18:35:29;101333.72;;;13.40;79.26
18504;BME280;9381;54.244;10.074;2023-05-23T18:40:30;101321.13;;;13.21;79.90
18504;BME280;9381;54.244;10.074;2023-05-23T18:45:30;101324.00;;;13.26;79.83
18504;BME280;9381;54.244;10.074;2023-05-23T18:50:31;101323.56;;;13.29;80.10
18504;BME280;9381;54.244;10.074;2023-05-23T18:55:32;101317.50;;;13.27;79.53
18504;BME280;9381;54.244;10.074;2023-05-23T19:00:32;101316.91;;;13.25;79.77
18504;BME280;9381;54.244;10.074;2023-05-23T19:05:33;101332.50;;;13.05;80.00
18504;BME280;9381;54.244;10.074;2023-05-23T19:10:33;101332.03;;;13.08;79.84
18504;BME280;9381;54.244;10.074;2023-05-23T19:15:33;101334.16;;;13.06;80.16
18504;BME280;9381;54.244;10.074;2023-05-23T19:20:34;101334.56;;;13.10;80.84
18504;BME280;9381;54.244;10.074;2023-05-23T19:25:35;101345.28;;;12.98;79.94
18504;BME280;9381;54.244;10.074;2023-05-23T19:30:36;101353.88;;;12.82;80.36
18504;BME280;9381;54.244;10.074;2023-05-23T19:35:37;101343.34;;;13.05;80.55
18504;BME280;9381;54.244;10.074;2023-05-23T19:40:38;101340.59;;;13.12;79.96
18504;BME280;9381;54.244;10.074;2023-05-23T19:45:38;101351.03;;;13.15;79.91
18504;BME280;9381;54.244;10.074;2023-05-23T19:50:39;101366.75;;;13.06;79.94
18504;BME280;9381;54.244;10.074;2023-05-23T19:55:41;101365.94;;;12.99;80.94
18504;BME280;9381;54.244;10.074;2023-05-23T20:00:42;101362.63;;;12.97;82.39
18504;BME280;9381;54.244;10.074;2023-05-23T20:05:42;101364.88;;;13.00;81.64
18504;BME280;9381;54.244;10.074;2023-05-23T20:10:43;101363.44;;;12.91;82.17
18504;BME280;9381;54.244;10.074;2023-05-23T20:15:43;101367.69;;;12.81;82.17
18504;BME280;9381;54.244;10.074;2023-05-23T20:20:44;101364.50;;;12.90;83.03
18504;BME280;9381;54.244;10.074;2023-05-23T20:25:44;101364.72;;;12.95;82.55
18504;BME280;9381;54.244;10.074;2023-05-23T20:30:45;101376.81;;;12.93;81.55
18504;BME280;9381;54.244;10.074;2023-05-23T20:35:46;101367.19;;;12.90;82.59
18504;BME280;9381;54.244;10.074;2023-05-23T20:40:49;101347.22;;;12.78;82.45
18504;BME280;9381;54.244;10.074;2023-05-23T20:45:50;101354.72;;;12.83;83.22
18504;BME280;9381;54.244;10.074;2023-05-23T20:50:50;101356.47;;;12.71;82.88
18504;BME280;9381;54.244;10.074;2023-05-23T20:55:51;101357.63;;;12.81;83.57
18504;BME280;9381;54.244;10.074;2023-05-23T21:00:52;101350.00;;;12.65;83.72
18504;BME280;9381;54.244;10.074;2023-05-23T21:05:52;101354.41;;;12.53;84.26
18504;BME280;9381;54.244;10.074;2023-05-23T21:10:52;101354.41;;;12.53;84.96
18504;BME280;9381;54.244;10.074;2023-05-23T21:15:53;101356.97;;;12.48;85.26
18504;BME280;9381;54.244;10.074;2023-05-23T21:20:53;101355.25;;;12.54;85.11
18504;BME280;9381;54.244;10.074;2023-05-23T21:25:53;101371.16;;;12.44;85.39
18504;BME280;9381;54.244;10.074;2023-05-23T21:30:54;101357.34;;;12.58;85.72
18504;BME280;9381;54.244;10.074;2023-05-23T21:35:54;101366.16;;;12.47;86.21
18504;BME280;9381;54.244;10.074;2023-05-23T21:40:55;101359.66;;;12.48;87.07
18504;BME280;9381;54.244;10.074;2023-05-23T21:45:55;101358.66;;;12.43;87.59
18504;BME280;9381;54.244;10.074;2023-05-23T21:50:55;101364.03;;;12.49;88.54
18504;BME280;9381;54.244;10.074;2023-05-23T21:55:56;101359.50;;;12.30;90.39
18504;BME280;9381;54.244;10.074;2023-05-23T22:00:56;101357.38;;;12.45;89.92
18504;BME280;9381;54.244;10.074;2023-05-23T22:05:57;101360.38;;;12.11;90.68
18504;BME280;9381;54.244;10.074;2023-05-23T22:10:58;101365.56;;;12.32;90.74
18504;BME280;9381;54.244;10.074;2023-05-23T22:15:58;101368.84;;;12.47;90.06
18504;BME280;9381;54.244;10.074;2023-05-23T22:20:59;101367.84;;;12.42;89.93
18504;BME280;9381;54.244;10.074;2023-05-23T22:25:59;101364.66;;;12.51;89.64
18504;BME280;9381;54.244;10.074;2023-05-23T22:31:00;101368.88;;;12.34;89.69
18504;BME280;9381;54.244;10.074;2023-05-23T22:36:01;101371.97;;;12.44;90.51
18504;BME280;9381;54.244;10.074;2023-05-23T22:41:02;101362.16;;;12.50;90.81
18504;BME280;9381;54.244;10.074;2023-05-23T22:46:03;101366.16;;;12.34;89.97
18504;BME280;9381;54.244;10.074;2023-05-23T22:51:03;101356.56;;;12.32;89.99
18504;BME280;9381;54.244;10.074;2023-05-23T22:56:04;101363.28;;;12.16;90.27
18504;BME280;9381;54.244;10.074;2023-05-23T23:01:05;101365.34;;;12.34;90.65
18504;BME280;9381;54.244;10.074;2023-05-23T23:06:05;101353.03;;;12.31;90.42
18504;BME280;9381;54.244;10.074;2023-05-23T23:11:05;101348.19;;;12.46;89.98
18504;BME280;9381;54.244;10.074;2023-05-23T23:16:06;101353.63;;;12.46;90.41
18504;BME280;9381;54.244;10.074;2023-05-23T23:21:07;101368.63;;;12.49;90.24
18504;BME280;9381;54.244;10.074;2023-05-23T23:26:08;101364.88;;;12.50;90.66
18504;BME280;9381;54.244;10.074;2023-05-23T23:31:08;101359.06;;;12.46;90.71
18504;BME280;9381;54.244;10.074;2023-05-23T23:36:08;101346.78;;;12.37;90.47
18504;BME280;9381;54.244;10.074;2023-05-23T23:41:09;101363.66;;;12.39;91.17
18504;BME280;9381;54.244;10.074;2023-05-23T23:46:09;101358.63;;;12.36;90.94
18504;BME280;9381;54.244;10.074;2023-05-23T23:51:10;101354.09;;;12.30;91.59
18504;BME280;9381;54.244;10.074;2023-05-23T23:56:11;101360.75;;;12.34;92.30
